sensor_id;sensor_type;location;lat;lon;timestamp;pressure;altitude;pressure_sealevel;temperature;humidity
33845;BME280;20145;43.118;25.694;2023-03-20T00:00:26;99829.34;;;5.34;87.64
33845;BME280;20145;43.118;25.694;2023-03-20T00:02:53;99823.31;;;5.32;87.91
33845;BME280;20145;43.118;25.694;2023-03-20T00:05:21;99822.41;;;5.27;87.80
33845;BME280;20145;43.118;25.694;2023-03-20T00:07:48;99818.16;;;5.27;87.18
33845;BME280;20145;43.118;25.694;2023-03-20T00:10:16;99816.38;;;5.22;87.48
33845;BME280;20145;43.118;25.694;2023-03-20T00:12:42;99820.50;;;5.15;87.79
33845;BME280;20145;43.118;25.694;2023-03-20T00:15:31;99814.47;;;5.11;88.54
33845;BME280;20145;43.118;25.694;2023-03-20T00:17:58;99815.19;;;5.03;87.39
33845;BME280;20145;43.118;25.694;2023-03-20T00:20:24;99816.81;;;4.96;88.10
33845;BME280;20145;43.118;25.694;2023-03-20T00:22:50;99807.38;;;4.94;87.67
33845;BME280;20145;43.118;25.694;2023-03-20T00:25:21;99789.31;;;4.84;87.99
33845;BME280;20145;43.118;25.694;2023-03-20T00:27:48;99793.56;;;4.84;87.21
33845;BME280;20145;43.118;25.694;2023-03-20T00:30:23;99793.59;;;4.85;87.76
33845;BME280;20145;43.118;25.694;2023-03-20T00:32:51;99796.13;;;4.84;87.41
33845;BME280;20145;43.118;25.694;2023-03-20T00:35:25;99784.06;;;4.75;87.42
33845;BME280;20145;43.118;25.694;2023-03-20T00:37:52;99790.81;;;4.72;87.38
33845;BME280;20145;43.118;25.694;2023-03-20T00:40:19;99780.44;;;4.64;87.06
33845;BME280;20145;43.118;25.694;2023-03-20T00:42:48;99787.25;;;4.65;87.64
33845;BME280;20145;43.118;25.694;2023-03-20T00:45:17;99784.59;;;4.59;87.30
33845;BME280;20145;43.118;25.694;2023-03-20T00:47:44;99777.63;;;4.50;87.10
33845;BME280;20145;43.118;25.694;2023-03-20T00:50:16;99785.34;;;4.53;87.54
33845;BME280;20145;43.118;25.694;2023-03-20T00:52:42;99773.38;;;4.49;87.93
33845;BME280;20145;43.118;25.694;2023-03-20T00:55:09;99781.97;;;4.54;88.14
33845;BME280;20145;43.118;25.694;2023-03-20T00:57:41;99775.09;;;4.50;88.72
33845;BME280;20145;43.118;25.694;2023-03-20T01:00:19;99772.53;;;4.50;88.38
33845;BME280;20145;43.118;25.694;2023-03-20T01:02:46;99781.84;;;4.46;88.36
33845;BME280;20145;43.118;25.694;2023-03-20T01:05:12;99781.81;;;4.45;88.46
33845;BME280;20145;43.118;25.694;2023-03-20T01:07:38;99780.09;;;4.44;89.40
33845;BME280;20145;43.118;25.694;2023-03-20T01:10:05;99759.50;;;4.38;89.22
33845;BME280;20145;43.118;25.694;2023-03-20T01:12:31;99766.41;;;4.42;89.96
33845;BME280;20145;43.118;25.694;2023-03-20T01:14:57;99760.47;;;4.43;89.33
33845;BME280;20145;43.118;25.694;2023-03-20T01:17:24;99764.75;;;4.44;89.38
33845;BME280;20145;43.118;25.694;2023-03-20T01:19:50;99756.34;;;4.50;90.24
33845;BME280;20145;43.118;25.694;2023-03-20T01:22:16;99751.16;;;4.45;89.80
33845;BME280;20145;43.118;25.694;2023-03-20T01:24:42;99746.06;;;4.46;90.58
33845;BME280;20145;43.118;25.694;2023-03-20T01:27:14;99733.25;;;4.45;90.87
33845;BME280;20145;43.118;25.694;2023-03-20T01:29:40;99755.59;;;4.57;90.85
33845;BME280;20145;43.118;25.694;2023-03-20T01:32:17;99755.66;;;4.58;89.98
33845;BME280;20145;43.118;25.694;2023-03-20T01:34:43;99751.28;;;4.54;90.22
33845;BME280;20145;43.118;25.694;2023-03-20T01:37:12;99751.34;;;4.56;89.89
33845;BME280;20145;43.118;25.694;2023-03-20T01:39:38;99756.50;;;4.59;90.97
33845;BME280;20145;43.118;25.694;2023-03-20T01:42:05;99760.75;;;4.60;91.25
33845;BME280;20145;43.118;25.694;2023-03-20T01:44:33;99752.22;;;4.58;91.34
33845;BME280;20145;43.118;25.694;2023-03-20T01:47:01;99753.19;;;4.63;91.70
33845;BME280;20145;43.118;25.694;2023-03-20T01:51:53;99750.53;;;4.60;90.91
33845;BME280;20145;43.118;25.694;2023-03-20T01:54:29;99750.53;;;4.60;90.68
33845;BME280;20145;43.118;25.694;2023-03-20T01:57:07;99754.81;;;4.59;90.37
33845;BME280;20145;43.118;25.694;2023-03-20T02:02:09;99748.78;;;4.56;90.96
33845;BME280;20145;43.118;25.694;2023-03-20T02:04:41;99752.19;;;4.55;90.03
33845;BME280;20145;43.118;25.694;2023-03-20T02:07:09;99746.94;;;4.47;90.14
33845;BME280;20145;43.118;25.694;2023-03-20T02:09:36;99729.50;;;4.24;89.94
33845;BME280;20145;43.118;25.694;2023-03-20T02:12:02;99758.81;;;4.43;89.84
33845;BME280;20145;43.118;25.694;2023-03-20T02:14:28;99754.50;;;4.42;89.46
33845;BME280;20145;43.118;25.694;2023-03-20T02:16:55;99736.47;;;4.35;88.77
33845;BME280;20145;43.118;25.694;2023-03-20T02:19:34;99749.38;;;4.41;89.21
33845;BME280;20145;43.118;25.694;2023-03-20T02:28:23;99756.00;;;4.31;88.73
33845;BME280;20145;43.118;25.694;2023-03-20T02:36:40;99749.78;;;4.18;89.75
33845;BME280;20145;43.118;25.694;2023-03-20T02:44:46;99751.25;;;4.06;89.74
33845;BME280;20145;43.118;25.694;2023-03-20T02:47:24;99746.09;;;4.02;88.75
33845;BME280;20145;43.118;25.694;2023-03-20T02:52:45;99746.84;;;3.98;88.88
33845;BME280;20145;43.118;25.694;2023-03-20T02:55:17;99742.47;;;3.91;88.36
33845;BME280;20145;43.118;25.694;2023-03-20T03:00:38;99735.50;;;3.83;88.56
33845;BME280;20145;43.118;25.694;2023-03-20T03:05:59;99730.97;;;3.71;88.68
33845;BME280;20145;43.118;25.694;2023-03-20T03:08:31;99733.53;;;3.69;89.42
33845;BME280;20145;43.118;25.694;2023-03-20T03:11:02;99728.31;;;3.65;89.39
33845;BME280;20145;43.118;25.694;2023-03-20T03:13:31;99730.91;;;3.66;89.43
33845;BME280;20145;43.118;25.694;2023-03-20T03:16:02;99736.81;;;3.65;89.33
33845;BME280;20145;43.118;25.694;2023-03-20T03:18:30;99737.59;;;3.63;89.85
33845;BME280;20145;43.118;25.694;2023-03-20T03:21:01;99731.66;;;3.62;90.37
33845;BME280;20145;43.118;25.694;2023-03-20T03:23:32;99737.59;;;3.63;89.56
33845;BME280;20145;43.118;25.694;2023-03-20T03:26:01;99735.00;;;3.60;90.06
33845;BME280;20145;43.118;25.694;2023-03-20T03:28:34;99731.47;;;3.54;90.35
33845;BME280;20145;43.118;25.694;2023-03-20T03:31:06;99715.25;;;3.49;90.48
33845;BME280;20145;43.118;25.694;2023-03-20T03:33:35;99723.94;;;3.57;89.97
33845;BME280;20145;43.118;25.694;2023-03-20T03:38:55;99722.06;;;3.52;90.44
33845;BME280;20145;43.118;25.694;2023-03-20T03:41:42;99718.59;;;3.48;90.98
33845;BME280;20145;43.118;25.694;2023-03-20T03:46:47;99709.25;;;3.47;90.45
33845;BME280;20145;43.118;25.694;2023-03-20T03:49:19;99714.19;;;3.40;90.35
33845;BME280;20145;43.118;25.694;2023-03-20T03:51:48;99710.59;;;3.31;90.75
33845;BME280;20145;43.118;25.694;2023-03-20T03:54:40;99713.38;;;3.42;91.78
33845;BME280;20145;43.118;25.694;2023-03-20T03:57:07;99723.59;;;3.42;91.38
33845;BME280;20145;43.118;25.694;2023-03-20T03:59:37;99721.03;;;3.42;91.82
33845;BME280;20145;43.118;25.694;2023-03-20T04:02:05;99714.19;;;3.40;91.81
33845;BME280;20145;43.118;25.694;2023-03-20T04:04:36;99717.44;;;3.34;91.83
33845;BME280;20145;43.118;25.694;2023-03-20T04:07:03;99722.63;;;3.37;91.51
33845;BME280;20145;43.118;25.694;2023-03-20T04:09:28;99731.13;;;3.38;91.90
33845;BME280;20145;43.118;25.694;2023-03-20T04:11:54;99718.38;;;3.38;92.66
33845;BME280;20145;43.118;25.694;2023-03-20T04:14:20;99730.44;;;3.45;92.49
33845;BME280;20145;43.118;25.694;2023-03-20T04:16:46;99726.94;;;3.40;92.49
33845;BME280;20145;43.118;25.694;2023-03-20T04:19:12;99719.28;;;3.40;92.18
33845;BME280;20145;43.118;25.694;2023-03-20T04:21:38;99724.41;;;3.41;91.95
33845;BME280;20145;43.118;25.694;2023-03-20T04:24:03;99725.28;;;3.43;91.98
33845;BME280;20145;43.118;25.694;2023-03-20T04:26:29;99723.72;;;3.48;92.59
33845;BME280;20145;43.118;25.694;2023-03-20T04:28:55;99710.06;;;3.46;92.13
33845;BME280;20145;43.118;25.694;2023-03-20T04:31:21;99735.91;;;3.62;91.70
33845;BME280;20145;43.118;25.694;2023-03-20T04:33:47;99724.72;;;3.55;91.98
33845;BME280;20145;43.118;25.694;2023-03-20T04:36:12;99732.50;;;3.61;92.50
33845;BME280;20145;43.118;25.694;2023-03-20T04:38:38;99738.50;;;3.65;91.85
33845;BME280;20145;43.118;25.694;2023-03-20T04:41:05;99742.81;;;3.67;91.44
33845;BME280;20145;43.118;25.694;2023-03-20T04:43:30;99738.69;;;3.72;90.92
33845;BME280;20145;43.118;25.694;2023-03-20T04:45:56;99743.94;;;3.80;91.17
33845;BME280;20145;43.118;25.694;2023-03-20T04:48:22;99748.38;;;3.89;91.11
33845;BME280;20145;43.118;25.694;2023-03-20T04:50:48;99752.84;;;4.00;90.93
33845;BME280;20145;43.118;25.694;2023-03-20T04:53:16;99737.81;;;4.14;90.33
33845;BME280;20145;43.118;25.694;2023-03-20T04:55:43;99748.31;;;4.30;90.31
33845;BME280;20145;43.118;25.694;2023-03-20T04:58:10;99749.28;;;4.36;89.93
33845;BME280;20145;43.118;25.694;2023-03-20T05:00:35;99754.66;;;4.50;89.93
33845;BME280;20145;43.118;25.694;2023-03-20T05:03:01;99754.81;;;4.59;89.72
33845;BME280;20145;43.118;25.694;2023-03-20T05:05:27;99748.16;;;4.69;89.41
33845;BME280;20145;43.118;25.694;2023-03-20T05:07:53;99744.16;;;4.85;88.67
33845;BME280;20145;43.118;25.694;2023-03-20T05:10:19;99755.50;;;4.99;89.05
33845;BME280;20145;43.118;25.694;2023-03-20T05:12:46;99756.56;;;5.13;88.41
33845;BME280;20145;43.118;25.694;2023-03-20T05:15:12;99753.31;;;5.24;87.65
33845;BME280;20145;43.118;25.694;2023-03-20T05:17:37;99763.84;;;5.44;87.43
33845;BME280;20145;43.118;25.694;2023-03-20T05:20:03;99756.28;;;5.53;87.73
33845;BME280;20145;43.118;25.694;2023-03-20T05:22:29;99768.41;;;5.68;87.07
33845;BME280;20145;43.118;25.694;2023-03-20T05:24:55;99764.31;;;5.80;87.09
33845;BME280;20145;43.118;25.694;2023-03-20T05:27:20;99743.97;;;5.91;86.72
33845;BME280;20145;43.118;25.694;2023-03-20T05:29:46;99766.53;;;6.18;87.23
33845;BME280;20145;43.118;25.694;2023-03-20T05:32:11;99767.56;;;6.36;87.12
33845;BME280;20145;43.118;25.694;2023-03-20T05:34:37;99771.19;;;6.55;87.64
33845;BME280;20145;43.118;25.694;2023-03-20T05:37:03;99766.22;;;6.72;87.25
33845;BME280;20145;43.118;25.694;2023-03-20T05:39:29;99771.50;;;6.88;86.25
33845;BME280;20145;43.118;25.694;2023-03-20T05:41:54;99775.03;;;7.01;86.65
33845;BME280;20145;43.118;25.694;2023-03-20T05:44:20;99786.25;;;7.17;85.61
33845;BME280;20145;43.118;25.694;2023-03-20T05:46:45;99775.22;;;7.27;85.16
33845;BME280;20145;43.118;25.694;2023-03-20T05:49:11;99778.75;;;7.45;83.99
33845;BME280;20145;43.118;25.694;2023-03-20T05:51:37;99765.91;;;7.40;83.13
33845;BME280;20145;43.118;25.694;2023-03-20T05:54:02;99781.34;;;7.48;83.43
33845;BME280;20145;43.118;25.694;2023-03-20T05:56:28;99775.44;;;7.58;83.08
33845;BME280;20145;43.118;25.694;2023-03-20T05:58:54;99774.63;;;7.73;82.96
33845;BME280;20145;43.118;25.694;2023-03-20T06:01:19;99777.28;;;7.87;82.20
33845;BME280;20145;43.118;25.694;2023-03-20T06:03:48;99768.75;;;7.92;81.32
33845;BME280;20145;43.118;25.694;2023-03-20T06:06:15;99771.38;;;8.09;81.21
33845;BME280;20145;43.118;25.694;2023-03-20T06:08:42;99780.00;;;8.22;80.71
33845;BME280;20145;43.118;25.694;2023-03-20T06:11:08;99767.19;;;8.30;80.81
33845;BME280;20145;43.118;25.694;2023-03-20T06:13:35;99771.47;;;8.34;80.33
33845;BME280;20145;43.118;25.694;2023-03-20T06:16:01;99757.78;;;8.38;79.54
33845;BME280;20145;43.118;25.694;2023-03-20T06:18:26;99764.72;;;8.51;79.50
33845;BME280;20145;43.118;25.694;2023-03-20T06:20:53;99762.13;;;8.60;79.17
33845;BME280;20145;43.118;25.694;2023-03-20T06:23:19;99769.03;;;8.70;78.02
33845;BME280;20145;43.118;25.694;2023-03-20T06:25:45;99758.72;;;8.80;79.02
33845;BME280;20145;43.118;25.694;2023-03-20T06:28:10;99763.88;;;8.95;78.68
33845;BME280;20145;43.118;25.694;2023-03-20T06:30:36;99774.19;;;8.97;78.74
33845;BME280;20145;43.118;25.694;2023-03-20T06:33:02;99770.75;;;8.98;79.80
33845;BME280;20145;43.118;25.694;2023-03-20T06:35:30;99766.44;;;9.03;79.87
33845;BME280;20145;43.118;25.694;2023-03-20T06:37:57;99773.31;;;9.05;80.22
33845;BME280;20145;43.118;25.694;2023-03-20T06:40:23;99764.75;;;8.99;81.89
33845;BME280;20145;43.118;25.694;2023-03-20T06:42:49;99757.88;;;9.10;81.66
33845;BME280;20145;43.118;25.694;2023-03-20T06:45:15;99763.88;;;9.21;82.44
33845;BME280;20145;43.118;25.694;2023-03-20T06:47:41;99764.72;;;9.32;83.39
33845;BME280;20145;43.118;25.694;2023-03-20T06:50:07;99766.41;;;9.53;82.27
33845;BME280;20145;43.118;25.694;2023-03-20T06:52:33;99748.34;;;9.64;82.15
33845;BME280;20145;43.118;25.694;2023-03-20T06:54:59;99763.75;;;9.78;81.96
33845;BME280;20145;43.118;25.694;2023-03-20T06:57:25;99766.31;;;9.87;82.05
33845;BME280;20145;43.118;25.694;2023-03-20T06:59:51;99770.59;;;9.88;81.49
33845;BME280;20145;43.118;25.694;2023-03-20T07:02:17;99758.56;;;9.92;81.21
33845;BME280;20145;43.118;25.694;2023-03-20T07:04:43;99761.13;;;9.95;82.94
33845;BME280;20145;43.118;25.694;2023-03-20T07:07:08;99759.41;;;9.89;83.67
33845;BME280;20145;43.118;25.694;2023-03-20T07:09:34;99760.25;;;9.99;84.26
33845;BME280;20145;43.118;25.694;2023-03-20T07:12:00;99756.84;;;9.98;83.63
33845;BME280;20145;43.118;25.694;2023-03-20T07:14:26;99751.59;;;10.11;83.42
33845;BME280;20145;43.118;25.694;2023-03-20T07:16:53;99766.19;;;10.29;82.23
33845;BME280;20145;43.118;25.694;2023-03-20T07:19:21;99762.72;;;10.33;81.28
33845;BME280;20145;43.118;25.694;2023-03-20T07:21:46;99766.06;;;10.48;81.97
33845;BME280;20145;43.118;25.694;2023-03-20T07:24:12;99765.97;;;10.62;81.51
33845;BME280;20145;43.118;25.694;2023-03-20T07:26:38;99765.03;;;10.76;81.47
33845;BME280;20145;43.118;25.694;2023-03-20T07:29:05;99758.91;;;10.86;80.50
33845;BME280;20145;43.118;25.694;2023-03-20T07:31:31;99774.28;;;11.04;79.79
33845;BME280;20145;43.118;25.694;2023-03-20T07:33:57;99766.47;;;11.12;80.24
33845;BME280;20145;43.118;25.694;2023-03-20T07:36:23;99753.47;;;11.21;80.34
33845;BME280;20145;43.118;25.694;2023-03-20T07:38:48;99754.16;;;11.38;79.51
33845;BME280;20145;43.118;25.694;2023-03-20T07:41:14;99761.81;;;11.51;78.83
33845;BME280;20145;43.118;25.694;2023-03-20T07:43:41;99754.88;;;11.54;77.41
33845;BME280;20145;43.118;25.694;2023-03-20T07:46:07;99758.13;;;11.73;77.70
33845;BME280;20145;43.118;25.694;2023-03-20T07:48:33;99762.31;;;11.87;76.61
33845;BME280;20145;43.118;25.694;2023-03-20T07:51:00;99762.22;;;11.93;75.94
33845;BME280;20145;43.118;25.694;2023-03-20T07:53:26;99766.47;;;11.97;76.35
33845;BME280;20145;43.118;25.694;2023-03-20T07:55:51;99773.13;;;12.16;75.75
33845;BME280;20145;43.118;25.694;2023-03-20T07:58:17;99764.34;;;12.30;75.25
33845;BME280;20145;43.118;25.694;2023-03-20T08:00:43;99770.06;;;12.53;74.98
33845;BME280;20145;43.118;25.694;2023-03-20T08:03:08;99763.88;;;12.65;75.22
33845;BME280;20145;43.118;25.694;2023-03-20T08:05:34;99763.88;;;12.63;73.60
33845;BME280;20145;43.118;25.694;2023-03-20T08:08:00;99772.22;;;12.82;73.19
33845;BME280;20145;43.118;25.694;2023-03-20T08:10:25;99774.75;;;12.87;71.12
33845;BME280;20145;43.118;25.694;2023-03-20T08:12:51;99769.53;;;12.88;72.27
33845;BME280;20145;43.118;25.694;2023-03-20T08:15:17;99769.38;;;12.99;71.88
33845;BME280;20145;43.118;25.694;2023-03-20T08:17:43;99768.22;;;13.17;70.74
33845;BME280;20145;43.118;25.694;2023-03-20T08:20:14;99766.22;;;13.34;68.25
33845;BME280;20145;43.118;25.694;2023-03-20T08:22:40;99763.38;;;13.50;68.83
33845;BME280;20145;43.118;25.694;2023-03-20T08:25:07;99772.00;;;13.50;67.90
33845;BME280;20145;43.118;25.694;2023-03-20T08:27:34;99772.78;;;13.55;67.51
33845;BME280;20145;43.118;25.694;2023-03-20T08:30:00;99765.41;;;13.79;66.23
33845;BME280;20145;43.118;25.694;2023-03-20T08:32:25;99770.16;;;14.00;66.91
33845;BME280;20145;43.118;25.694;2023-03-20T08:34:52;99765.84;;;14.01;64.88
33845;BME280;20145;43.118;25.694;2023-03-20T08:37:19;99782.78;;;14.17;64.29
33845;BME280;20145;43.118;25.694;2023-03-20T08:39:45;99756.78;;;14.20;63.79
33845;BME280;20145;43.118;25.694;2023-03-20T08:42:10;99780.53;;;14.42;63.53
33845;BME280;20145;43.118;25.694;2023-03-20T08:44:36;99774.50;;;14.40;63.00
33845;BME280;20145;43.118;25.694;2023-03-20T08:47:01;99776.59;;;14.65;62.55
33845;BME280;20145;43.118;25.694;2023-03-20T08:49:28;99770.34;;;14.73;62.71
33845;BME280;20145;43.118;25.694;2023-03-20T08:51:53;99774.53;;;14.79;61.10
33845;BME280;20145;43.118;25.694;2023-03-20T08:54:19;99772.00;;;14.78;60.17
33845;BME280;20145;43.118;25.694;2023-03-20T08:56:45;99777.72;;;14.90;60.83
33845;BME280;20145;43.118;25.694;2023-03-20T08:59:11;99773.19;;;14.99;59.96
33845;BME280;20145;43.118;25.694;2023-03-20T09:01:37;99772.78;;;14.80;60.02
33845;BME280;20145;43.118;25.694;2023-03-20T09:04:03;99768.13;;;14.94;60.61
33845;BME280;20145;43.118;25.694;2023-03-20T09:06:29;99767.97;;;15.00;59.49
33845;BME280;20145;43.118;25.694;2023-03-20T09:08:55;99778.66;;;15.24;59.54
33845;BME280;20145;43.118;25.694;2023-03-20T09:11:22;99770.28;;;15.47;58.79
33845;BME280;20145;43.118;25.694;2023-03-20T09:13:48;99758.72;;;15.57;58.09
33845;BME280;20145;43.118;25.694;2023-03-20T09:16:14;99758.16;;;15.78;57.53
33845;BME280;20145;43.118;25.694;2023-03-20T09:18:39;99759.97;;;15.76;56.32
33845;BME280;20145;43.118;25.694;2023-03-20T09:21:05;99752.84;;;15.83;57.65
33845;BME280;20145;43.118;25.694;2023-03-20T09:23:31;99748.91;;;15.99;55.30
33845;BME280;20145;43.118;25.694;2023-03-20T09:25:57;99741.47;;;16.17;55.61
33845;BME280;20145;43.118;25.694;2023-03-20T09:28:22;99733.47;;;16.23;54.64
33845;BME280;20145;43.118;25.694;2023-03-20T09:30:48;99747.50;;;16.47;54.97
33845;BME280;20145;43.118;25.694;2023-03-20T09:33:13;99738.31;;;16.63;54.16
33845;BME280;20145;43.118;25.694;2023-03-20T09:35:39;99739.34;;;16.58;54.03
33845;BME280;20145;43.118;25.694;2023-03-20T09:38:06;99734.94;;;16.60;53.88
33845;BME280;20145;43.118;25.694;2023-03-20T09:51:42;99727.72;;;16.68;53.52
33845;BME280;20145;43.118;25.694;2023-03-20T09:54:18;99728.22;;;16.81;53.18
33845;BME280;20145;43.118;25.694;2023-03-20T09:56:49;99722.66;;;16.91;52.37
33845;BME280;20145;43.118;25.694;2023-03-20T09:59:16;99707.38;;;17.07;52.35
33845;BME280;20145;43.118;25.694;2023-03-20T10:01:54;99715.47;;;17.25;52.00
33845;BME280;20145;43.118;25.694;2023-03-20T10:04:24;99718.19;;;17.22;50.37
33845;BME280;20145;43.118;25.694;2023-03-20T10:06:51;99716.56;;;17.17;51.59
33845;BME280;20145;43.118;25.694;2023-03-20T10:09:27;99707.69;;;17.23;50.90
33845;BME280;20145;43.118;25.694;2023-03-20T10:14:56;99710.66;;;17.37;48.97
33845;BME280;20145;43.118;25.694;2023-03-20T10:17:49;99695.78;;;17.41;46.78
33845;BME280;20145;43.118;25.694;2023-03-20T10:23:33;99696.13;;;17.55;47.93
33845;BME280;20145;43.118;25.694;2023-03-20T10:26:13;99692.78;;;17.75;47.17
33845;BME280;20145;43.118;25.694;2023-03-20T10:34:00;99678.19;;;18.17;47.94
33845;BME280;20145;43.118;25.694;2023-03-20T10:37:03;99680.13;;;18.34;46.05
33845;BME280;20145;43.118;25.694;2023-03-20T10:42:28;99676.84;;;18.50;43.36
33845;BME280;20145;43.118;25.694;2023-03-20T10:44:58;99675.56;;;18.61;44.24
33845;BME280;20145;43.118;25.694;2023-03-20T10:47:28;99672.44;;;18.75;43.75
33845;BME280;20145;43.118;25.694;2023-03-20T10:50:06;99647.13;;;18.75;43.58
33845;BME280;20145;43.118;25.694;2023-03-20T10:52:38;99658.06;;;18.85;43.28
33845;BME280;20145;43.118;25.694;2023-03-20T10:55:21;99658.59;;;18.93;43.34
33845;BME280;20145;43.118;25.694;2023-03-20T10:57:53;99660.28;;;18.94;42.68
33845;BME280;20145;43.118;25.694;2023-03-20T11:00:23;99658.47;;;18.96;42.68
33845;BME280;20145;43.118;25.694;2023-03-20T11:02:50;99656.75;;;18.95;42.60
33845;BME280;20145;43.118;25.694;2023-03-20T11:05:32;99652.63;;;18.89;41.97
33845;BME280;20145;43.118;25.694;2023-03-20T11:08:05;99648.00;;;18.96;42.32
33845;BME280;20145;43.118;25.694;2023-03-20T11:10:34;99649.25;;;19.08;41.49
33845;BME280;20145;43.118;25.694;2023-03-20T11:13:25;99640.47;;;18.88;42.53
33845;BME280;20145;43.118;25.694;2023-03-20T11:15:52;99623.47;;;18.78;42.55
33845;BME280;20145;43.118;25.694;2023-03-20T11:18:18;99627.41;;;18.88;42.12
33845;BME280;20145;43.118;25.694;2023-03-20T11:20:50;99625.72;;;18.87;42.70
33845;BME280;20145;43.118;25.694;2023-03-20T11:23:18;99621.47;;;18.85;42.69
33845;BME280;20145;43.118;25.694;2023-03-20T11:28:20;99615.44;;;18.83;43.20
33845;BME280;20145;43.118;25.694;2023-03-20T11:30:49;99602.72;;;18.96;43.54
33845;BME280;20145;43.118;25.694;2023-03-20T11:33:15;99603.84;;;19.09;41.06
33845;BME280;20145;43.118;25.694;2023-03-20T11:35:45;99597.44;;;19.16;40.61
33845;BME280;20145;43.118;25.694;2023-03-20T11:38:17;99590.06;;;19.05;40.05
33845;BME280;20145;43.118;25.694;2023-03-20T11:40:45;99599.88;;;19.00;39.97
33845;BME280;20145;43.118;25.694;2023-03-20T11:43:22;99597.03;;;19.25;39.85
33845;BME280;20145;43.118;25.694;2023-03-20T11:45:53;99595.00;;;19.32;40.04
33845;BME280;20145;43.118;25.694;2023-03-20T11:48:23;99596.41;;;19.39;39.44
33845;BME280;20145;43.118;25.694;2023-03-20T11:51:04;99592.25;;;19.35;39.90
33845;BME280;20145;43.118;25.694;2023-03-20T11:54:04;99593.50;;;19.45;39.62
33845;BME280;20145;43.118;25.694;2023-03-20T11:56:32;99585.09;;;19.57;39.74
33845;BME280;20145;43.118;25.694;2023-03-20T11:59:13;99584.75;;;19.65;39.40
33845;BME280;20145;43.118;25.694;2023-03-20T12:04:27;99583.97;;;19.44;39.97
33845;BME280;20145;43.118;25.694;2023-03-20T12:06:57;99582.06;;;19.67;39.31
33845;BME280;20145;43.118;25.694;2023-03-20T12:09:30;99576.78;;;19.68;40.29
33845;BME280;20145;43.118;25.694;2023-03-20T12:12:02;99583.00;;;19.85;39.08
33845;BME280;20145;43.118;25.694;2023-03-20T12:17:23;99571.88;;;19.79;39.01
33845;BME280;20145;43.118;25.694;2023-03-20T12:19:52;99573.16;;;19.52;39.69
33845;BME280;20145;43.118;25.694;2023-03-20T12:22:24;99574.78;;;19.54;39.09
33845;BME280;20145;43.118;25.694;2023-03-20T12:25:23;99568.84;;;19.70;39.23
33845;BME280;20145;43.118;25.694;2023-03-20T12:36:17;99565.34;;;19.50;39.26
33845;BME280;20145;43.118;25.694;2023-03-20T12:38:49;99558.84;;;19.59;39.26
33845;BME280;20145;43.118;25.694;2023-03-20T12:41:23;99554.47;;;19.59;39.70
33845;BME280;20145;43.118;25.694;2023-03-20T12:44:15;99558.34;;;19.51;39.80
33845;BME280;20145;43.118;25.694;2023-03-20T12:47:07;99553.84;;;19.54;39.90
33845;BME280;20145;43.118;25.694;2023-03-20T12:53:03;99548.84;;;19.69;38.49
33845;BME280;20145;43.118;25.694;2023-03-20T12:58:33;99535.53;;;19.73;38.20
33845;BME280;20145;43.118;25.694;2023-03-20T13:01:21;99535.22;;;19.79;37.25
33845;BME280;20145;43.118;25.694;2023-03-20T13:04:15;99540.03;;;19.89;38.57
33845;BME280;20145;43.118;25.694;2023-03-20T13:07:00;99537.56;;;19.86;39.10
33845;BME280;20145;43.118;25.694;2023-03-20T13:12:19;99530.84;;;19.80;38.72
33845;BME280;20145;43.118;25.694;2023-03-20T13:20:32;99517.09;;;20.11;38.01
33845;BME280;20145;43.118;25.694;2023-03-20T13:26:01;99518.59;;;19.98;38.60
33845;BME280;20145;43.118;25.694;2023-03-20T13:29:01;99515.31;;;20.12;39.41
33845;BME280;20145;43.118;25.694;2023-03-20T13:37:20;99504.59;;;20.34;38.16
33845;BME280;20145;43.118;25.694;2023-03-20T13:47:58;99497.97;;;20.09;37.81
33845;BME280;20145;43.118;25.694;2023-03-20T13:50:35;99488.38;;;20.10;39.15
33845;BME280;20145;43.118;25.694;2023-03-20T13:53:26;99494.91;;;20.18;38.20
33845;BME280;20145;43.118;25.694;2023-03-20T13:56:10;99490.13;;;20.09;38.76
33845;BME280;20145;43.118;25.694;2023-03-20T14:01:16;99497.53;;;20.01;39.77
33845;BME280;20145;43.118;25.694;2023-03-20T14:03:47;99493.44;;;19.95;39.87
33845;BME280;20145;43.118;25.694;2023-03-20T14:08:53;99491.50;;;19.81;40.18
33845;BME280;20145;43.118;25.694;2023-03-20T14:13:53;99484.97;;;19.90;40.01
33845;BME280;20145;43.118;25.694;2023-03-20T14:16:20;99488.41;;;19.91;39.02
33845;BME280;20145;43.118;25.694;2023-03-20T14:18:54;99479.16;;;19.83;39.24
33845;BME280;20145;43.118;25.694;2023-03-20T14:21:29;99475.22;;;19.92;39.48
33845;BME280;20145;43.118;25.694;2023-03-20T14:24:06;99470.72;;;19.96;39.67
33845;BME280;20145;43.118;25.694;2023-03-20T14:26:37;99474.03;;;19.99;39.43
33845;BME280;20145;43.118;25.694;2023-03-20T14:31:36;99477.94;;;19.91;39.29
33845;BME280;20145;43.118;25.694;2023-03-20T14:36:55;99466.38;;;19.77;39.39
33845;BME280;20145;43.118;25.694;2023-03-20T14:42:04;99459.00;;;19.86;39.28
33845;BME280;20145;43.118;25.694;2023-03-20T14:47:57;99451.44;;;19.97;37.43
33845;BME280;20145;43.118;25.694;2023-03-20T14:53:29;99444.81;;;19.90;37.89
33845;BME280;20145;43.118;25.694;2023-03-20T14:56:05;99437.03;;;19.88;38.30
33845;BME280;20145;43.118;25.694;2023-03-20T15:01:02;99439.81;;;19.85;37.39
33845;BME280;20145;43.118;25.694;2023-03-20T15:03:29;99443.44;;;19.82;38.98
33845;BME280;20145;43.118;25.694;2023-03-20T15:05:57;99436.72;;;19.77;37.63
33845;BME280;20145;43.118;25.694;2023-03-20T15:08:35;99430.66;;;19.76;37.87
33845;BME280;20145;43.118;25.694;2023-03-20T15:11:09;99436.78;;;19.75;38.76
33845;BME280;20145;43.118;25.694;2023-03-20T15:13:37;99435.53;;;19.65;40.10
33845;BME280;20145;43.118;25.694;2023-03-20T15:16:09;99433.19;;;19.59;40.27
33845;BME280;20145;43.118;25.694;2023-03-20T15:18:38;99435.44;;;19.49;40.09
33845;BME280;20145;43.118;25.694;2023-03-20T15:21:14;99435.94;;;19.38;40.31